Time;durP1;ratioP1;P1;durP2;ratioP2;P2;SDS_P1;SDS_P2;PMS_P1;PMS_P2;Temp;Humidity;BMP_temperature;BMP_pressure;BME280_temperature;BME280_humidity;BME280_pressure;Samples;Min_cycle;Max_cycle;Signal;HPM_P1;HPM_P2
2023/08/03 00:00:59;;;;;;;0.82;0.57;;;22.30;99.90;;;;;;5101006;27;45257;-63
2023/08/03 00:03:26;;;;;;;0.70;0.52;;;22.30;99.90;;;;;;5101973;27;45346;-63
2023/08/03 00:05:53;;;;;;;0.93;0.47;;;22.30;99.90;;;;;;5103703;27;45309;-64
2023/08/03 00:08:20;;;;;;;0.85;0.50;;;22.30;99.90;;;;;;5103178;27;46990;-63
2023/08/03 00:10:46;;;;;;;1.10;0.57;;;22.30;99.90;;;;;;5102637;27;45302;-63
2023/08/03 00:13:13;;;;;;;1.00;0.47;;;22.30;99.90;;;;;;5104245;27;45348;-64
2023/08/03 00:15:41;;;;;;;1.05;0.50;;;22.30;99.90;;;;;;5102721;27;45287;-63
2023/08/03 00:18:08;;;;;;;0.80;0.50;;;22.30;99.90;;;;;;5104437;27;46039;-61
2023/08/03 00:20:35;;;;;;;1.55;0.40;;;22.30;99.90;;;;;;5105020;27;45308;-63
2023/08/03 00:23:02;;;;;;;1.05;0.50;;;22.30;99.90;;;;;;5103644;27;45265;-63
2023/08/03 00:25:30;;;;;;;0.85;0.50;;;22.30;99.90;;;;;;5104953;27;45172;-63
2023/08/03 00:27:57;;;;;;;1.27;0.55;;;22.30;99.90;;;;;;5101706;27;45525;-64
2023/08/03 00:30:24;;;;;;;1.48;0.50;;;22.30;99.90;;;;;;5101574;27;45177;-63
2023/08/03 00:32:52;;;;;;;1.00;0.60;;;22.20;99.90;;;;;;5103085;27;45274;-63
2023/08/03 00:35:19;;;;;;;0.75;0.52;;;22.30;99.90;;;;;;5103304;27;45312;-63
2023/08/03 00:37:46;;;;;;;1.55;0.57;;;22.30;99.90;;;;;;5101747;27;45449;-63
2023/08/03 00:40:13;;;;;;;1.20;0.57;;;22.20;99.90;;;;;;5103068;27;45331;-63
2023/08/03 00:42:40;;;;;;;1.00;0.60;;;22.20;99.90;;;;;;5103464;27;45260;-63
2023/08/03 00:45:10;;;;;;;1.52;0.70;;;22.20;99.90;;;;;;5104333;27;45375;-63
2023/08/03 00:47:37;;;;;;;0.45;0.35;;;22.20;99.90;;;;;;5102572;27;45701;-63
2023/08/03 00:50:07;;;;;;;1.42;0.50;;;22.20;99.90;;;;;;5101113;27;45244;-64
2023/08/03 00:52:34;;;;;;;0.47;0.40;;;22.20;99.90;;;;;;5105252;27;45438;-64
2023/08/03 00:55:01;;;;;;;0.88;0.40;;;22.20;99.90;;;;;;5107801;27;45453;-63
2023/08/03 00:57:28;;;;;;;1.27;0.70;;;22.20;99.90;;;;;;5102688;27;46287;-64
2023/08/03 00:59:55;;;;;;;1.35;0.47;;;22.20;99.90;;;;;;5101930;27;45427;-63
2023/08/03 01:02:22;;;;;;;1.30;0.43;;;22.20;99.90;;;;;;5101120;27;45066;-64
2023/08/03 01:04:49;;;;;;;2.05;0.63;;;22.20;99.90;;;;;;5102081;27;45399;-64
2023/08/03 01:07:18;;;;;;;0.52;0.30;;;22.20;99.90;;;;;;5100398;27;46256;-63
2023/08/03 01:09:44;;;;;;;0.88;0.50;;;22.20;99.90;;;;;;5104617;27;45658;-64
2023/08/03 01:12:11;;;;;;;0.57;0.32;;;22.20;99.90;;;;;;5103553;27;45110;-63
2023/08/03 01:14:38;;;;;;;1.20;0.52;;;22.20;99.90;;;;;;5102505;27;45348;-63
2023/08/03 01:17:05;;;;;;;1.55;0.50;;;22.20;99.90;;;;;;5102774;27;46410;-63
2023/08/03 01:19:32;;;;;;;1.27;0.60;;;22.20;99.90;;;;;;5101896;27;45333;-63
2023/08/03 01:22:01;;;;;;;1.20;0.40;;;22.20;99.90;;;;;;5104491;27;45172;-64
2023/08/03 01:24:29;;;;;;;1.30;0.50;;;22.20;99.90;;;;;;5105278;27;45206;-63
2023/08/03 01:26:58;;;;;;;0.55;0.55;;;22.20;99.90;;;;;;5103761;27;46471;-64
2023/08/03 01:29:25;;;;;;;1.20;0.55;;;22.20;99.90;;;;;;5098334;27;45311;-63
2023/08/03 01:31:56;;;;;;;0.65;0.40;;;22.20;99.90;;;;;;5102065;27;45461;-64
2023/08/03 01:34:23;;;;;;;1.15;0.30;;;22.20;99.90;;;;;;5100282;27;45323;-63
2023/08/03 01:36:50;;;;;;;0.50;0.50;;;22.20;99.90;;;;;;5104788;27;46156;-64
2023/08/03 01:39:17;;;;;;;0.55;0.45;;;22.20;99.90;;;;;;5101944;27;45339;-63
2023/08/03 01:41:45;;;;;;;1.63;0.65;;;22.20;99.90;;;;;;5102675;27;45169;-64
2023/08/03 01:44:28;;;;;;;1.55;0.70;;;22.20;99.90;;;;;;5100316;27;45355;-64
2023/08/03 01:46:55;;;;;;;1.33;0.50;;;22.20;99.90;;;;;;5098011;27;46382;-64
2023/08/03 01:49:23;;;;;;;1.77;0.52;;;22.20;99.90;;;;;;5103215;27;46305;-63
2023/08/03 01:51:51;;;;;;;1.52;0.40;;;22.20;99.90;;;;;;5101328;27;45157;-64
2023/08/03 01:54:18;;;;;;;0.43;0.40;;;22.20;99.90;;;;;;5103358;27;45518;-63
2023/08/03 01:56:46;;;;;;;2.67;0.47;;;22.20;99.90;;;;;;5103219;27;46239;-63
2023/08/03 01:59:13;;;;;;;1.75;0.45;;;22.20;99.90;;;;;;5101149;27;45235;-63
2023/08/03 02:01:40;;;;;;;0.73;0.40;;;22.20;99.90;;;;;;5103039;27;45232;-64
2023/08/03 02:04:07;;;;;;;1.80;0.63;;;22.20;99.90;;;;;;5095459;27;45073;-64
2023/08/03 02:06:35;;;;;;;0.55;0.40;;;22.20;99.90;;;;;;5086907;27;48364;-63
2023/08/03 02:09:02;;;;;;;0.47;0.28;;;22.10;99.90;;;;;;5086084;27;45333;-64
2023/08/03 02:11:29;;;;;;;1.30;0.40;;;22.20;99.90;;;;;;5088697;27;45305;-63
2023/08/03 02:13:57;;;;;;;0.60;0.40;;;22.20;99.90;;;;;;5089993;27;45231;-64
2023/08/03 02:16:24;;;;;;;1.55;0.57;;;22.20;99.90;;;;;;5088952;27;45383;-63
2023/08/03 02:18:51;;;;;;;1.15;0.40;;;22.10;99.90;;;;;;5087498;27;45271;-64
2023/08/03 02:21:18;;;;;;;1.33;0.40;;;22.10;99.90;;;;;;5093685;27;45384;-63
2023/08/03 02:23:44;;;;;;;0.73;0.40;;;22.10;99.90;;;;;;5086215;27;45493;-64
2023/08/03 02:26:11;;;;;;;1.10;0.50;;;22.10;99.90;;;;;;5086804;27;47940;-63
2023/08/03 02:28:38;;;;;;;0.80;0.50;;;22.10;99.90;;;;;;5087596;27;45167;-63
2023/08/03 02:31:06;;;;;;;0.85;0.50;;;22.10;99.90;;;;;;5085757;27;45486;-64
2023/08/03 02:33:33;;;;;;;0.73;0.43;;;22.10;99.90;;;;;;5089959;27;45362;-64
2023/08/03 02:36:00;;;;;;;0.95;0.60;;;22.20;99.90;;;;;;5091375;27;47054;-63
2023/08/03 02:38:27;;;;;;;0.70;0.43;;;22.20;99.90;;;;;;5082932;27;45496;-63
2023/08/03 02:40:54;;;;;;;0.90;0.50;;;22.20;99.90;;;;;;5086227;27;45324;-64
2023/08/03 02:43:20;;;;;;;0.82;0.57;;;22.20;99.90;;;;;;5090379;27;45458;-63
2023/08/03 02:45:47;;;;;;;1.70;0.57;;;22.20;99.90;;;;;;5091519;27;48402;-63
2023/08/03 02:48:15;;;;;;;1.58;0.45;;;22.20;99.90;;;;;;5088949;27;45215;-64
2023/08/03 02:50:42;;;;;;;0.90;0.50;;;22.20;99.90;;;;;;5085802;27;45193;-63
2023/08/03 02:53:09;;;;;;;1.15;0.47;;;22.20;99.90;;;;;;5090800;27;45336;-64
2023/08/03 02:55:35;;;;;;;0.50;0.30;;;22.20;99.90;;;;;;5092565;27;45205;-63
2023/08/03 02:58:02;;;;;;;1.75;0.40;;;22.20;99.90;;;;;;5086294;27;45505;-64
2023/08/03 03:00:29;;;;;;;1.30;0.43;;;22.20;99.90;;;;;;5084771;27;45335;-63
2023/08/03 03:02:56;;;;;;;1.45;0.60;;;22.20;99.90;;;;;;5080661;27;45323;-63
2023/08/03 03:05:24;;;;;;;1.38;0.30;;;22.20;99.90;;;;;;5089643;27;45447;-63
2023/08/03 03:07:51;;;;;;;0.73;0.40;;;22.20;99.90;;;;;;5093258;27;45314;-63
2023/08/03 03:10:17;;;;;;;0.65;0.45;;;22.20;99.90;;;;;;5092972;27;45152;-63
2023/08/03 03:12:44;;;;;;;1.27;0.40;;;22.20;99.90;;;;;;5094319;27;45223;-64
2023/08/03 03:15:11;;;;;;;1.00;0.50;;;22.20;99.90;;;;;;5080526;27;46828;-63
2023/08/03 03:17:38;;;;;;;1.20;0.47;;;22.20;99.90;;;;;;5087393;27;45320;-63
2023/08/03 03:20:06;;;;;;;1.10;0.50;;;22.20;99.90;;;;;;5094190;27;45187;-63
2023/08/03 03:22:35;;;;;;;0.57;0.32;;;22.20;99.90;;;;;;5095804;27;45428;-63
2023/08/03 03:25:02;;;;;;;0.77;0.50;;;22.20;99.90;;;;;;5091284;27;46030;-63
2023/08/03 03:27:29;;;;;;;0.35;0.30;;;22.10;99.90;;;;;;5101438;27;45302;-63
2023/08/03 03:29:56;;;;;;;1.00;0.40;;;22.20;99.90;;;;;;5090331;27;45344;-63
2023/08/03 03:32:23;;;;;;;0.50;0.50;;;22.20;99.90;;;;;;5087832;27;45195;-63
2023/08/03 03:34:49;;;;;;;0.70;0.30;;;22.20;99.90;;;;;;5085086;27;48365;-63
2023/08/03 03:37:16;;;;;;;0.35;0.30;;;22.20;99.90;;;;;;5082241;27;45249;-63
2023/08/03 03:39:44;;;;;;;1.15;0.40;;;22.10;99.90;;;;;;5094053;27;45415;-63
2023/08/03 03:42:11;;;;;;;0.45;0.40;;;22.10;99.90;;;;;;5088479;27;45404;-61
2023/08/03 03:44:38;;;;;;;0.75;0.30;;;22.20;99.90;;;;;;5087668;27;47194;-63
2023/08/03 03:47:05;;;;;;;0.20;0.20;;;22.10;99.90;;;;;;5085784;27;45252;-64
2023/08/03 03:49:32;;;;;;;0.77;0.38;;;22.10;99.90;;;;;;5093618;27;45328;-63
2023/08/03 03:51:59;;;;;;;0.30;0.30;;;22.10;99.90;;;;;;5084859;27;45454;-64
2023/08/03 03:54:26;;;;;;;0.28;0.20;;;22.20;99.90;;;;;;5088631;27;46356;-63
2023/08/03 03:56:55;;;;;;;0.73;0.50;;;22.20;99.90;;;;;;5094690;27;45278;-64
2023/08/03 03:59:21;;;;;;;0.40;0.40;;;22.20;99.90;;;;;;5085262;27;45324;-63
2023/08/03 04:01:48;;;;;;;1.80;0.50;;;22.20;99.90;;;;;;5092973;27;45171;-63
2023/08/03 04:04:15;;;;;;;0.47;0.40;;;22.20;99.90;;;;;;5100571;27;46380;-63
2023/08/03 04:06:43;;;;;;;0.88;0.43;;;22.20;99.90;;;;;;5102813;27;45407;-64
2023/08/03 04:09:10;;;;;;;0.90;0.40;;;22.20;99.90;;;;;;5102925;27;45282;-63
2023/08/03 04:11:37;;;;;;;1.67;0.50;;;22.20;99.90;;;;;;5105963;27;45319;-64
2023/08/03 04:14:05;;;;;;;0.57;0.40;;;22.20;99.90;;;;;;5102589;27;47026;-63
2023/08/03 04:16:31;;;;;;;0.68;0.35;;;22.20;99.90;;;;;;5101802;27;45348;-64
2023/08/03 04:18:58;;;;;;;0.98;0.40;;;22.20;99.90;;;;;;5104708;27;45310;-63
2023/08/03 04:21:25;;;;;;;0.52;0.32;;;22.20;99.90;;;;;;5102183;27;45343;-64
2023/08/03 04:23:52;;;;;;;0.40;0.40;;;22.20;99.90;;;;;;5106183;27;46204;-63
2023/08/03 04:26:19;;;;;;;0.47;0.47;;;22.20;99.90;;;;;;5099569;27;45201;-64
2023/08/03 04:28:45;;;;;;;0.60;0.40;;;22.20;99.90;;;;;;5098159;27;45229;-63
2023/08/03 04:31:14;;;;;;;0.30;0.20;;;22.20;99.90;;;;;;5102906;27;45236;-63
2023/08/03 04:33:40;;;;;;;0.52;0.30;;;22.20;99.90;;;;;;5106897;27;47041;-63
2023/08/03 04:36:07;;;;;;;0.50;0.47;;;22.20;99.90;;;;;;5108630;27;45285;-64
2023/08/03 04:38:34;;;;;;;0.90;0.30;;;22.20;99.90;;;;;;5106386;27;45232;-64
2023/08/03 04:41:01;;;;;;;0.28;0.28;;;22.30;99.90;;;;;;5107832;27;45165;-63
2023/08/03 04:43:28;;;;;;;0.85;0.40;;;22.30;99.90;;;;;;5112466;27;46178;-64
2023/08/03 04:45:55;;;;;;;1.33;0.40;;;22.20;99.90;;;;;;5105319;27;45471;-63
2023/08/03 04:48:23;;;;;;;0.75;0.40;;;22.20;99.90;;;;;;5106523;27;45248;-63
2023/08/03 04:50:50;;;;;;;0.73;0.45;;;22.20;99.90;;;;;;5110577;27;45248;-63
2023/08/03 04:53:16;;;;;;;0.52;0.32;;;22.20;99.90;;;;;;5106365;27;47360;-63
2023/08/03 04:55:45;;;;;;;1.10;0.40;;;22.20;99.90;;;;;;5101917;27;45381;-64
2023/08/03 04:58:11;;;;;;;0.95;0.30;;;22.20;99.90;;;;;;5103376;27;45217;-64
2023/08/03 05:00:38;;;;;;;0.60;0.40;;;22.20;99.90;;;;;;5103461;27;45269;-63
2023/08/03 05:03:05;;;;;;;0.82;0.40;;;22.20;99.90;;;;;;5093427;27;45276;-63
2023/08/03 05:05:33;;;;;;;1.88;0.40;;;22.20;99.90;;;;;;5108265;27;45105;-63
2023/08/03 05:08:00;;;;;;;1.30;0.40;;;22.20;99.90;;;;;;5106618;27;45251;-63
2023/08/03 05:10:27;;;;;;;0.35;0.32;;;22.20;99.90;;;;;;5108275;27;45303;-63
2023/08/03 05:12:53;;;;;;;3.28;0.30;;;22.20;99.90;;;;;;5104224;27;45302;-63
2023/08/03 05:15:20;;;;;;;1.63;0.40;;;22.20;99.90;;;;;;5108178;27;45278;-63
2023/08/03 05:17:49;;;;;;;0.35;0.35;;;22.20;99.90;;;;;;5103000;27;45241;-63
2023/08/03 05:20:16;;;;;;;2.67;0.50;;;22.20;99.90;;;;;;5104258;27;45383;-63
2023/08/03 05:22:44;;;;;;;0.40;0.30;;;22.20;99.90;;;;;;5103745;27;46356;-62
2023/08/03 05:25:11;;;;;;;0.40;0.30;;;22.20;99.90;;;;;;5106533;27;45090;-64
2023/08/03 05:27:38;;;;;;;1.15;0.50;;;22.20;99.90;;;;;;5103199;27;45291;-64
2023/08/03 05:30:07;;;;;;;0.55;0.20;;;22.20;99.90;;;;;;5103659;27;45082;-63
2023/08/03 05:32:33;;;;;;;1.15;0.52;;;22.20;99.90;;;;;;5105762;27;48292;-63
2023/08/03 05:35:00;;;;;;;0.60;0.20;;;22.20;99.90;;;;;;5105886;27;45181;-63
2023/08/03 05:37:27;;;;;;;0.57;0.20;;;22.20;99.90;;;;;;5106934;27;45282;-64
2023/08/03 05:39:55;;;;;;;0.93;0.40;;;22.20;99.90;;;;;;5108859;27;45167;-64
2023/08/03 05:42:22;;;;;;;0.57;0.28;;;22.20;99.90;;;;;;5101692;27;47877;-64
2023/08/03 05:44:49;;;;;;;0.95;0.50;;;22.20;99.90;;;;;;5096823;27;45380;-63
2023/08/03 05:47:18;;;;;;;0.20;0.20;;;22.20;99.90;;;;;;5101641;27;45192;-63
2023/08/03 05:49:45;;;;;;;0.43;0.10;;;22.20;99.90;;;;;;5104042;27;45166;-63
2023/08/03 05:52:13;;;;;;;0.20;0.20;;;22.20;99.90;;;;;;5102582;27;46262;-64
2023/08/03 05:54:40;;;;;;;0.20;0.20;;;22.10;99.90;;;;;;5101251;27;45314;-63
2023/08/03 05:57:13;;;;;;;0.20;0.15;;;22.20;99.90;;;;;;5109137;27;45197;-63
2023/08/03 05:59:40;;;;;;;0.68;0.30;;;22.20;99.90;;;;;;5104230;27;45166;-63
2023/08/03 06:02:20;;;;;;;0.30;0.20;;;22.20;99.90;;;;;;5101951;27;45224;-63
2023/08/03 06:04:47;;;;;;;0.55;0.30;;;22.20;99.90;;;;;;5099431;27;45733;-63
2023/08/03 06:07:15;;;;;;;0.30;0.20;;;22.20;99.90;;;;;;5101221;27;45182;-63
2023/08/03 06:09:41;;;;;;;0.20;0.20;;;22.20;99.90;;;;;;5108796;27;45387;-63
2023/08/03 06:12:15;;;;;;;1.85;0.30;;;22.10;99.90;;;;;;5109947;27;46057;-63
2023/08/03 06:14:41;;;;;;;1.75;0.35;;;22.20;99.90;;;;;;5105045;27;45276;-61
2023/08/03 06:17:09;;;;;;;0.52;0.40;;;22.20;99.90;;;;;;5100448;27;45257;-63
2023/08/03 06:19:37;;;;;;;0.75;0.35;;;22.20;99.90;;;;;;5096175;27;45152;-63
2023/08/03 06:22:05;;;;;;;0.50;0.30;;;22.20;99.90;;;;;;5102456;27;46235;-62
2023/08/03 06:24:32;;;;;;;4.53;0.40;;;22.20;99.90;;;;;;5109922;27;45236;-63
2023/08/03 06:26:59;;;;;;;0.22;0.13;;;22.20;99.90;;;;;;5101594;27;45304;-63
2023/08/03 06:29:27;;;;;;;1.48;0.40;;;22.20;99.90;;;;;;5097692;27;45376;-63
2023/08/03 06:31:54;;;;;;;1.50;0.22;;;22.20;99.90;;;;;;5096132;27;45189;-62
2023/08/03 06:34:21;;;;;;;0.43;0.25;;;22.20;99.90;;;;;;5094911;27;45110;-63
2023/08/03 06:36:48;;;;;;;0.40;0.30;;;22.20;99.90;;;;;;5103307;27;45277;-62
2023/08/03 06:39:15;;;;;;;0.55;0.30;;;22.20;99.90;;;;;;5104329;27;45274;-63
2023/08/03 06:41:42;;;;;;;0.43;0.22;;;22.20;99.90;;;;;;5101938;27;45312;-62
2023/08/03 06:44:09;;;;;;;0.68;0.28;;;22.20;99.90;;;;;;5100899;27;45346;-64
2023/08/03 06:46:37;;;;;;;0.40;0.30;;;22.20;99.90;;;;;;5107222;27;45231;-63
2023/08/03 06:49:04;;;;;;;1.55;0.30;;;22.20;99.90;;;;;;5102893;27;45105;-63
2023/08/03 06:51:32;;;;;;;0.70;0.38;;;22.20;99.90;;;;;;5109196;27;46364;-63
2023/08/03 06:54:02;;;;;;;0.45;0.22;;;22.20;99.90;;;;;;5104907;27;45327;-63
2023/08/03 06:56:31;;;;;;;0.65;0.50;;;22.20;99.90;;;;;;5096311;27;45252;-63
2023/08/03 06:58:58;;;;;;;0.32;0.22;;;22.20;99.90;;;;;;5105814;27;45233;-62
2023/08/03 07:01:25;;;;;;;0.10;0.10;;;22.20;99.90;;;;;;5094517;27;45217;-63
2023/08/03 07:03:53;;;;;;;0.43;0.30;;;22.20;99.90;;;;;;5084664;27;45289;-63
2023/08/03 07:06:20;;;;;;;1.00;0.30;;;22.20;99.90;;;;;;5086336;27;45248;-63
2023/08/03 07:08:46;;;;;;;0.70;0.30;;;22.20;99.90;;;;;;5082596;28;45266;-63
2023/08/03 07:11:13;;;;;;;0.70;0.50;;;22.20;99.90;;;;;;5078637;27;47372;-63
2023/08/03 07:13:40;;;;;;;0.60;0.28;;;22.20;99.90;;;;;;5092751;27;45131;-63
2023/08/03 07:16:07;;;;;;;0.68;0.35;;;22.20;99.90;;;;;;5088240;27;45110;-62
2023/08/03 07:18:34;;;;;;;0.32;0.30;;;22.20;99.90;;;;;;5080166;27;45106;-63
2023/08/03 07:21:05;;;;;;;3.03;0.30;;;22.20;99.90;;;;;;5080465;28;46055;-63
2023/08/03 07:23:32;;;;;;;3.05;0.50;;;22.20;99.90;;;;;;5073182;27;45348;-63
2023/08/03 07:25:59;;;;;;;0.55;0.30;;;22.20;99.90;;;;;;5082440;27;45434;-63
2023/08/03 07:28:26;;;;;;;2.08;0.40;;;22.20;99.90;;;;;;5078448;27;45556;-64
2023/08/03 07:30:53;;;;;;;0.77;0.30;;;22.20;99.90;;;;;;5079749;28;46292;-63
2023/08/03 07:33:19;;;;;;;0.50;0.22;;;22.20;99.90;;;;;;5080690;27;45334;-62
2023/08/03 07:35:46;;;;;;;1.30;0.30;;;22.20;99.90;;;;;;5087736;27;45363;-64
2023/08/03 07:38:14;;;;;;;0.28;0.20;;;22.20;99.90;;;;;;5093370;27;45137;-63
2023/08/03 07:40:41;;;;;;;1.58;0.30;;;22.20;99.90;;;;;;5081747;28;45167;-63
2023/08/03 07:43:08;;;;;;;0.28;0.20;;;22.20;99.90;;;;;;5079607;28;45095;-63
2023/08/03 07:45:38;;;;;;;1.45;0.20;;;22.20;99.90;;;;;;5087073;27;45221;-63
2023/08/03 07:48:05;;;;;;;0.57;0.30;;;22.20;99.90;;;;;;5081709;27;45238;-63
2023/08/03 07:50:32;;;;;;;0.20;0.20;;;22.20;99.90;;;;;;5086912;27;45452;-64
2023/08/03 07:52:59;;;;;;;0.82;0.40;;;22.20;99.90;;;;;;5081835;28;45184;-63
2023/08/03 07:55:27;;;;;;;0.65;0.28;;;22.20;99.90;;;;;;5085104;27;45540;-62
2023/08/03 07:57:54;;;;;;;3.38;0.50;;;22.20;99.90;;;;;;5079859;28;45149;-63
2023/08/03 08:00:22;;;;;;;0.63;0.40;;;22.20;99.90;;;;;;5080964;27;48421;-63
2023/08/03 08:02:48;;;;;;;1.05;0.22;;;22.20;99.90;;;;;;5099219;27;45265;-63
2023/08/03 08:05:15;;;;;;;0.20;0.17;;;22.20;99.90;;;;;;5102159;27;45284;-63
2023/08/03 08:07:42;;;;;;;0.38;0.20;;;22.20;99.90;;;;;;5105325;27;45272;-63
2023/08/03 08:10:11;;;;;;;0.43;0.30;;;22.20;99.90;;;;;;5105704;27;46031;-63
2023/08/03 08:12:39;;;;;;;1.25;0.40;;;22.20;99.90;;;;;;5110561;27;45262;-63
2023/08/03 08:15:06;;;;;;;0.90;0.47;;;22.20;99.90;;;;;;5104987;27;45243;-63
2023/08/03 08:17:33;;;;;;;0.30;0.30;;;22.20;99.90;;;;;;5102531;27;45544;-63
2023/08/03 08:20:00;;;;;;;0.30;0.30;;;22.20;99.90;;;;;;5105422;27;46103;-63
2023/08/03 08:22:27;;;;;;;0.60;0.32;;;22.20;99.90;;;;;;5105364;27;45275;-63
2023/08/03 08:24:54;;;;;;;0.20;0.20;;;22.20;99.90;;;;;;5110467;27;45352;-62
2023/08/03 08:27:20;;;;;;;1.00;0.40;;;22.20;99.90;;;;;;5105969;27;45276;-63
2023/08/03 08:29:49;;;;;;;0.47;0.25;;;22.20;99.90;;;;;;5102510;27;47323;-63
2023/08/03 08:32:15;;;;;;;1.35;0.32;;;22.20;99.90;;;;;;5108971;27;45302;-63
2023/08/03 08:34:42;;;;;;;1.25;0.38;;;22.20;99.90;;;;;;5105430;27;45113;-63
2023/08/03 08:37:09;;;;;;;0.47;0.30;;;22.20;99.90;;;;;;5105299;27;45517;-63
2023/08/03 08:39:36;;;;;;;0.63;0.30;;;22.20;99.90;;;;;;5102953;27;47440;-63
2023/08/03 08:42:11;;;;;;;0.40;0.30;;;22.20;99.90;;;;;;5105222;27;45074;-63
2023/08/03 08:44:38;;;;;;;1.80;0.30;;;22.20;99.90;;;;;;5103338;27;45187;-63
2023/08/03 08:47:07;;;;;;;0.38;0.20;;;22.20;99.90;;;;;;5107158;27;45118;-63
2023/08/03 08:49:34;;;;;;;0.52;0.30;;;22.20;99.90;;;;;;5106520;27;45371;-63
2023/08/03 08:52:02;;;;;;;0.57;0.20;;;22.20;99.90;;;;;;5106084;27;46265;-64
2023/08/03 08:54:31;;;;;;;0.17;0.17;;;22.30;99.90;;;;;;5108297;27;45212;-63
2023/08/03 08:56:58;;;;;;;0.52;0.20;;;22.20;99.90;;;;;;5107709;27;45390;-63
2023/08/03 08:59:26;;;;;;;1.05;0.30;;;22.20;99.90;;;;;;5106537;27;46288;-63
2023/08/03 09:01:54;;;;;;;0.10;0.10;;;22.30;99.90;;;;;;5103969;27;46389;-62
2023/08/03 09:04:30;;;;;;;0.38;0.20;;;22.30;99.90;;;;;;5108255;27;45190;-62
2023/08/03 09:06:57;;;;;;;0.30;0.28;;;22.30;99.90;;;;;;5108516;27;45376;-63
2023/08/03 09:09:28;;;;;;;0.52;0.20;;;22.30;99.90;;;;;;5107433;27;45263;-63
2023/08/03 09:11:56;;;;;;;2.30;0.30;;;22.30;99.90;;;;;;5104686;27;45248;-63
2023/08/03 09:14:23;;;;;;;0.75;0.38;;;22.30;99.90;;;;;;5107232;27;45149;-63
2023/08/03 09:16:50;;;;;;;0.40;0.20;;;22.30;99.90;;;;;;5106477;27;45450;-63
2023/08/03 09:19:37;;;;;;;0.45;0.30;;;22.30;99.90;;;;;;5112770;27;47084;-62
2023/08/03 09:22:04;;;;;;;2.47;0.35;;;22.30;99.90;;;;;;5104932;27;45279;-63
2023/08/03 09:24:31;;;;;;;0.20;0.20;;;22.30;99.90;;;;;;5107306;27;45361;-62
2023/08/03 09:26:58;;;;;;;0.70;0.20;;;22.30;99.90;;;;;;5113418;27;45140;-62
2023/08/03 09:29:29;;;;;;;0.15;0.15;;;22.30;99.90;;;;;;5102929;27;46529;-62
2023/08/03 09:32:04;;;;;;;0.20;0.10;;;22.30;99.90;;;;;;5102605;27;45149;-62
2023/08/03 09:34:39;;;;;;;0.47;0.28;;;22.30;99.90;;;;;;5104733;27;45209;-62
2023/08/03 09:37:07;;;;;;;0.30;0.20;;;22.40;99.90;;;;;;5110419;27;45177;-60
2023/08/03 09:39:34;;;;;;;0.85;0.30;;;22.40;99.90;;;;;;5101389;27;46166;-63
2023/08/03 09:42:04;;;;;;;2.22;0.38;;;22.30;99.90;;;;;;5102443;27;45184;-62
2023/08/03 09:44:31;;;;;;;1.38;0.40;;;22.30;99.90;;;;;;5109073;27;45254;-62
2023/08/03 09:46:58;;;;;;;0.50;0.25;;;22.30;99.90;;;;;;5107627;27;45179;-62
2023/08/03 09:49:26;;;;;;;0.47;0.30;;;22.30;99.90;;;;;;5095897;27;46977;-62
2023/08/03 09:51:57;;;;;;;0.70;0.30;;;22.30;99.90;;;;;;5101634;27;45295;-62
2023/08/03 09:54:30;;;;;;;0.93;0.40;;;22.30;99.90;;;;;;5101687;27;45149;-62
2023/08/03 09:56:59;;;;;;;0.68;0.30;;;22.30;99.90;;;;;;5116061;27;45350;-62
2023/08/03 09:59:28;;;;;;;0.20;0.20;;;22.30;99.90;;;;;;5109669;27;45498;-62
2023/08/03 10:02:00;;;;;;;0.80;0.50;;;22.30;99.90;;;;;;5101748;27;45295;-63
2023/08/03 10:04:31;;;;;;;0.90;0.40;;;22.30;99.90;;;;;;5104037;27;45144;-62
2023/08/03 10:07:03;;;;;;;0.98;0.47;;;22.30;99.90;;;;;;5107252;27;45436;-62
2023/08/03 10:09:37;;;;;;;0.93;0.40;;;22.30;99.90;;;;;;5095858;27;48111;-62
2023/08/03 10:12:08;;;;;;;0.65;0.40;;;22.30;99.90;;;;;;5108058;27;45193;-62
2023/08/03 10:14:39;;;;;;;0.52;0.52;;;22.30;99.90;;;;;;5108066;27;45205;-62
2023/08/03 10:17:07;;;;;;;1.30;0.52;;;22.30;99.90;;;;;;5104263;27;45284;-63
2023/08/03 10:19:35;;;;;;;0.32;0.32;;;22.30;99.90;;;;;;5104330;27;47209;-62
2023/08/03 10:22:03;;;;;;;1.58;0.50;;;22.30;99.90;;;;;;5108496;27;45176;-63
2023/08/03 10:24:30;;;;;;;1.02;0.50;;;22.30;99.90;;;;;;5103124;27;45212;-62
2023/08/03 10:27:17;;;;;;;0.73;0.40;;;22.30;99.90;;;;;;5102457;27;45327;-62
2023/08/03 10:29:53;;;;;;;0.73;0.38;;;22.30;99.90;;;;;;5094947;27;46619;-62
2023/08/03 10:32:22;;;;;;;1.58;0.50;;;22.30;99.90;;;;;;5102171;27;45287;-62
2023/08/03 10:34:51;;;;;;;1.50;0.50;;;22.30;99.90;;;;;;5100861;27;45298;-63
2023/08/03 10:37:19;;;;;;;0.30;0.30;;;22.30;99.90;;;;;;5103257;27;45285;-61
2023/08/03 10:39:49;;;;;;;1.60;0.40;;;22.20;99.90;;;;;;5106742;27;45386;-63
2023/08/03 10:42:20;;;;;;;0.50;0.30;;;22.20;99.90;;;;;;5097431;27;45280;-63
2023/08/03 10:44:47;;;;;;;0.90;0.40;;;22.30;99.90;;;;;;5093211;27;45269;-62
2023/08/03 10:47:23;;;;;;;1.02;0.30;;;22.30;99.90;;;;;;5104473;27;45256;-62
2023/08/03 10:49:52;;;;;;;0.40;0.30;;;22.30;99.90;;;;;;5099538;27;45243;-62
2023/08/03 10:52:30;;;;;;;0.70;0.35;;;22.30;99.90;;;;;;5106046;27;45200;-62
2023/08/03 10:54:59;;;;;;;0.90;0.40;;;22.30;99.90;;;;;;5102079;27;45284;-62
2023/08/03 10:57:28;;;;;;;0.77;0.60;;;22.30;99.90;;;;;;5091047;27;45568;-62
2023/08/03 10:59:57;;;;;;;2.15;0.50;;;22.30;99.90;;;;;;5093557;27;48076;-62
2023/08/03 11:02:28;;;;;;;1.92;0.60;;;22.40;99.90;;;;;;5099539;27;45613;-62
2023/08/03 11:04:56;;;;;;;1.27;0.35;;;22.40;99.90;;;;;;5098017;27;45229;-62
2023/08/03 11:07:26;;;;;;;1.90;0.55;;;22.40;99.90;;;;;;5105075;27;45329;-61
2023/08/03 11:09:54;;;;;;;1.80;0.50;;;22.40;99.90;;;;;;5098079;27;47366;-62
2023/08/03 11:12:23;;;;;;;2.85;0.50;;;22.40;99.90;;;;;;5099255;27;46051;-63
2023/08/03 11:14:51;;;;;;;3.20;0.63;;;22.40;99.90;;;;;;5102567;27;45278;-62
2023/08/03 11:17:21;;;;;;;1.10;0.50;;;22.40;99.90;;;;;;5104411;27;45349;-62
2023/08/03 11:19:48;;;;;;;0.93;0.50;;;22.40;99.90;;;;;;5098795;27;47130;-63
2023/08/03 11:22:15;;;;;;;2.83;0.70;;;22.40;99.90;;;;;;5099877;27;45302;-62
2023/08/03 11:24:44;;;;;;;5.57;1.33;;;22.40;99.90;;;;;;5097791;27;45398;-62
2023/08/03 11:27:12;;;;;;;2.25;0.55;;;22.40;99.90;;;;;;5097769;27;45435;-62
2023/08/03 11:29:39;;;;;;;1.80;0.68;;;22.50;99.90;;;;;;5100093;27;46276;-63
2023/08/03 11:32:07;;;;;;;2.20;1.02;;;22.50;99.90;;;;;;5100182;27;45256;-63
2023/08/03 11:34:34;;;;;;;2.55;0.47;;;22.50;99.90;;;;;;5106079;27;45239;-62
2023/08/03 11:37:01;;;;;;;3.75;0.60;;;22.50;99.90;;;;;;5104256;27;45158;-62
2023/08/03 11:39:28;;;;;;;4.28;1.02;;;22.50;99.90;;;;;;5100918;27;46279;-63
2023/08/03 11:41:57;;;;;;;0.90;0.50;;;22.40;99.90;;;;;;5099010;27;46023;-62
2023/08/03 11:44:24;;;;;;;1.25;0.43;;;22.40;99.90;;;;;;5103081;27;45149;-62
2023/08/03 11:47:03;;;;;;;1.98;0.60;;;22.40;99.90;;;;;;5110750;27;45244;-62
2023/08/03 11:49:30;;;;;;;1.52;0.60;;;22.50;99.90;;;;;;5108656;27;46314;-63
2023/08/03 11:51:59;;;;;;;0.55;0.45;;;22.40;99.90;;;;;;5104786;27;45181;-62
2023/08/03 11:54:29;;;;;;;1.38;0.52;;;22.40;99.90;;;;;;5106516;27;45208;-62
2023/08/03 11:58:07;;;;;;;1.27;0.63;;;22.40;99.90;;;;;;5104537;27;45309;-62
2023/08/03 11:59:47;;;;;;;2.00;0.70;;;22.40;99.90;;;;;;5098760;27;45356;-62
2023/08/03 12:02:14;;;;;;;1.42;0.60;;;22.40;99.90;;;;;;5102320;27;45375;-62
2023/08/03 12:04:42;;;;;;;1.17;0.60;;;22.40;99.90;;;;;;5096057;27;45094;-62
2023/08/03 12:07:09;;;;;;;2.20;0.60;;;22.40;99.90;;;;;;5099979;27;45332;-61
2023/08/03 12:09:40;;;;;;;1.25;0.60;;;22.40;99.90;;;;;;5101398;27;47034;-62
2023/08/03 12:12:11;;;;;;;2.67;0.60;;;22.40;99.90;;;;;;5103807;27;45236;-62
2023/08/03 12:14:39;;;;;;;1.25;0.68;;;22.30;99.90;;;;;;5103739;27;45122;-62
2023/08/03 12:17:12;;;;;;;2.85;0.57;;;22.40;99.90;;;;;;5097235;27;45207;-62
2023/08/03 12:19:39;;;;;;;1.17;0.50;;;22.40;99.90;;;;;;5101366;27;48259;-61
2023/08/03 12:22:06;;;;;;;0.98;0.60;;;22.40;99.90;;;;;;5105918;27;45149;-61
2023/08/03 12:24:33;;;;;;;1.70;0.50;;;22.40;99.90;;;;;;5102562;27;45288;-61
2023/08/03 12:27:01;;;;;;;4.22;0.70;;;22.40;99.90;;;;;;5108209;27;45309;-62
2023/08/03 12:29:29;;;;;;;0.82;0.40;;;22.40;99.90;;;;;;5098517;27;47163;-62
2023/08/03 12:31:56;;;;;;;0.63;0.50;;;22.40;99.90;;;;;;5106661;27;45161;-61
2023/08/03 12:34:23;;;;;;;2.47;0.40;;;22.40;99.90;;;;;;5101069;27;45234;-61
2023/08/03 12:36:49;;;;;;;1.23;0.35;;;22.40;99.90;;;;;;5110638;27;45093;-61
2023/08/03 12:39:17;;;;;;;0.77;0.50;;;22.40;99.90;;;;;;5105182;27;46023;-62
2023/08/03 12:41:44;;;;;;;0.47;0.30;;;22.40;99.90;;;;;;5102222;27;45176;-61
2023/08/03 12:44:11;;;;;;;1.30;0.50;;;22.40;99.90;;;;;;5102797;27;45293;-61
2023/08/03 12:46:39;;;;;;;2.95;0.52;;;22.40;99.90;;;;;;5105508;27;45270;-61
2023/08/03 12:49:06;;;;;;;1.52;0.60;;;22.40;99.90;;;;;;5113713;27;48378;-62
2023/08/03 12:51:35;;;;;;;2.03;0.90;;;22.30;99.90;;;;;;5109141;27;45180;-61